KACB/ACB METAR and TAF weather

Enter ICAO airport designator
Station Type Date Time Source
KACB METAR 2020/09/18 22:15 UTC NOAA

KACB 182215Z AUTO 33003KT 10SM CLR 12/M01 A3037 RMK AO2 T01201008


Station Type Date Time Source
KACB Decoded METAR 2020/09/18 22:15 UTC NOAA

Bellaire, Antrim County Airport, MI, United States (KACB) 44-59-18N 085-11-54W
Sep 18, 2020 - 06:15 PM EDT / 2020.09.18 2215 UTC
Wind: from the NNW (330 degrees) at 3 MPH (3 KT):0
Visibility: 10 mile(s):0
Sky conditions: clear
Temperature: 53.6 F (12.0 C)
Dew Point: 30.6 F (-0.8 C)
Relative Humidity: 41%
Pressure (altimeter): 30.37 in. Hg (1028 hPa)
ob: KACB 182215Z AUTO 33003KT 10SM CLR 12/M01 A3037 RMK AO2 T01201008
cycle: 22

Station Type Date Time Source
KACB TAF UTC NOAA

Error!

Example: see airport list